Time;durP1;ratioP1;P1;durP2;ratioP2;P2;SDS_P1;SDS_P2;PMS_P1;PMS_P2;Temp;Humidity;BMP_temperature;BMP_pressure;BME280_temperature;BME280_humidity;BME280_pressure;Samples;Min_cycle;Max_cycle;Signal;HPM_P1;HPM_P2
2022/10/10 00:02:42;;;;;;;3.07;1.50;;;;;;;5.91;93.20;98330.78;6084939;29;20238;-69
2022/10/10 00:05:44;;;;;;;3.47;1.60;;;;;;;5.95;93.13;98331.47;6086293;29;20233;-69
2022/10/10 00:08:47;;;;;;;1.77;1.40;;;;;;;5.98;93.51;98326.09;6085810;29;20635;-69
2022/10/10 00:11:49;;;;;;;3.70;1.37;;;;;;;6.02;93.46;98318.88;6086224;29;20839;-69
2022/10/10 00:14:51;;;;;;;3.30;1.60;;;;;;;6.03;92.93;98315.34;6085312;29;20265;-70
2022/10/10 00:17:53;;;;;;;3.93;1.37;;;;;;;6.08;92.96;98318.59;6073602;29;20733;-69
2022/10/10 00:20:55;;;;;;;5.13;1.40;;;;;;;6.10;93.25;98309.69;6062466;29;20243;-69
2022/10/10 00:23:59;;;;;;;2.07;1.37;;;;;;;6.14;93.20;98316.50;6062016;29;20232;-70
2022/10/10 00:27:01;;;;;;;3.50;1.70;;;;;;;6.17;93.19;98313.72;6062878;29;20222;-69
2022/10/10 00:30:06;;;;;;;3.27;1.57;;;;;;;6.19;92.86;98322.31;6067895;29;20232;-69
2022/10/10 00:33:08;;;;;;;2.33;1.20;;;;;;;6.19;93.07;98301.34;6061091;29;20214;-69
2022/10/10 00:36:10;;;;;;;3.00;1.30;;;;;;;6.21;93.14;98301.28;6061794;29;20232;-69
2022/10/10 00:39:11;;;;;;;4.07;1.70;;;;;;;6.25;92.58;98294.97;6064779;29;20211;-69
2022/10/10 00:42:16;;;;;;;3.73;1.63;;;;;;;6.30;92.88;98296.41;6067303;29;20213;-69
2022/10/10 00:45:20;;;;;;;1.80;1.57;;;;;;;6.43;92.45;98293.97;6066804;29;20692;-69
2022/10/10 00:48:30;;;;;;;3.50;1.57;;;;;;;6.54;92.36;98289.00;6065842;29;20227;-69
2022/10/10 00:51:32;;;;;;;1.60;1.50;;;;;;;6.61;91.86;98292.97;6050353;29;20260;-69
2022/10/10 00:54:36;;;;;;;2.83;1.70;;;;;;;6.65;91.36;98283.16;6066991;29;20650;-69
2022/10/10 00:57:39;;;;;;;1.87;1.63;;;;;;;6.69;91.08;98276.81;6066914;29;20644;-69
2022/10/10 01:00:41;;;;;;;3.50;1.70;;;;;;;6.72;90.64;98271.41;6050135;29;20329;-69
2022/10/10 01:03:43;;;;;;;3.23;1.53;;;;;;;6.76;90.71;98272.94;6066467;29;20243;-69
2022/10/10 01:06:45;;;;;;;3.43;1.70;;;;;;;6.82;90.77;98277.00;6066378;29;20247;-70
2022/10/10 01:09:50;;;;;;;3.17;1.80;;;;;;;6.87;90.72;98265.31;6067540;29;20778;-69
2022/10/10 01:13:21;;;;;;;2.70;1.57;;;;;;;7.07;89.69;98264.19;6067295;29;20380;-69
2022/10/10 01:16:55;;;;;;;4.57;1.40;;;;;;;7.17;89.66;98256.66;6066129;29;20235;-68
2022/10/10 01:20:18;;;;;;;2.53;1.90;;;;;;;7.31;88.86;98257.53;6063150;29;20231;-70
2022/10/10 01:23:41;;;;;;;4.17;1.60;;;;;;;7.51;87.30;98253.72;6079995;29;20614;-69
2022/10/10 01:27:13;;;;;;;5.63;1.60;;;;;;;7.77;85.27;98253.06;6090382;29;20228;-69
2022/10/10 01:30:19;;;;;;;2.47;1.90;;;;;;;7.78;85.45;98243.38;6074802;29;20239;-68
2022/10/10 01:33:35;;;;;;;2.70;1.63;;;;;;;7.78;85.79;98253.91;6065807;29;20236;-69
2022/10/10 01:37:01;;;;;;;3.40;1.40;;;;;;;7.72;85.63;98249.00;6066106;29;20236;-69
2022/10/10 01:40:28;;;;;;;2.20;1.23;;;;;;;7.66;85.91;98247.59;6065920;29;20243;-69
2022/10/10 01:43:31;;;;;;;1.67;1.37;;;;;;;7.60;86.56;98239.22;6066865;29;20236;-69
2022/10/10 01:46:33;;;;;;;5.17;1.60;;;;;;;7.54;86.23;98226.44;6065676;29;20244;-69
2022/10/10 01:49:35;;;;;;;1.60;1.30;;;;;;;7.54;85.66;98231.72;6064957;29;20667;-69
2022/10/10 01:53:19;;;;;;;3.37;1.63;;;;;;;7.63;85.22;98223.28;6066122;29;20236;-69
2022/10/10 01:56:45;;;;;;;2.80;1.40;;;;;;;8.10;81.09;98223.84;6064422;29;20244;-69
2022/10/10 02:00:10;;;;;;;4.00;1.37;;;;;;;8.54;78.10;98217.66;6082376;29;20801;-69
2022/10/10 02:03:18;;;;;;;2.20;1.10;;;;;;;8.93;75.71;98213.41;6072868;29;20243;-70
2022/10/10 02:06:43;;;;;;;1.20;0.80;;;;;;;9.07;74.65;98208.94;6088269;29;20240;-69
2022/10/10 02:09:49;;;;;;;4.57;1.40;;;;;;;9.32;71.62;98209.94;6091032;29;20727;-69
2022/10/10 02:12:51;;;;;;;3.27;1.70;;;;;;;9.45;70.89;98201.09;6087637;29;20228;-69
2022/10/10 02:15:57;;;;;;;2.97;1.33;;;;;;;9.74;69.32;98207.03;6088512;29;20236;-69
2022/10/10 02:19:02;;;;;;;2.77;1.10;;;;;;;9.70;70.40;98207.34;6068036;29;20236;-69
2022/10/10 02:22:06;;;;;;;2.57;1.10;;;;;;;9.68;69.64;98209.25;6069423;29;20245;-69
2022/10/10 02:25:08;;;;;;;1.87;1.10;;;;;;;9.71;69.32;98211.66;6066477;29;20709;-69
2022/10/10 02:28:14;;;;;;;2.77;1.40;;;;;;;9.66;70.58;98203.25;6067048;29;20252;-69
2022/10/10 02:31:33;;;;;;;4.83;1.40;;;;;;;9.58;69.84;98204.56;6066441;29;20236;-70
2022/10/10 02:34:37;;;;;;;4.43;1.20;;;;;;;9.78;68.29;98219.03;6072391;29;20242;-69
2022/10/10 02:37:41;;;;;;;13.10;1.53;;;;;;;9.89;67.74;98207.75;6087873;29;20233;-69
2022/10/10 02:40:46;;;;;;;1.20;0.90;;;;;;;9.84;68.65;98208.09;6088980;29;20241;-69
2022/10/10 02:43:49;;;;;;;2.63;1.43;;;;;;;9.84;68.67;98209.88;6087574;29;20245;-69
2022/10/10 02:46:52;;;;;;;2.43;1.30;;;;;;;9.76;69.47;98213.06;6071560;29;20563;-69
2022/10/10 02:49:53;;;;;;;2.40;1.40;;;;;;;9.72;69.12;98206.28;6087765;29;20226;-69
2022/10/10 02:52:57;;;;;;;2.63;1.40;;;;;;;9.78;68.99;98205.03;6086836;29;20234;-70
2022/10/10 02:55:59;;;;;;;4.93;1.37;;;;;;;9.87;67.95;98210.53;6086903;29;20643;-70
2022/10/10 02:59:01;;;;;;;1.60;1.10;;;;;;;9.84;68.23;98204.59;6087667;29;20720;-70
2022/10/10 03:02:03;;;;;;;3.23;1.50;;;;;;;9.74;68.61;98209.66;6087428;29;20230;-69
2022/10/10 03:05:05;;;;;;;3.40;1.50;;;;;;;9.80;68.85;98201.31;6070852;29;20709;-70
2022/10/10 03:08:07;;;;;;;2.33;1.43;;;;;;;9.75;69.23;98203.44;6086835;29;20235;-69
2022/10/10 03:11:12;;;;;;;2.83;1.50;;;;;;;9.72;68.72;98195.75;6087140;29;20256;-70
2022/10/10 03:14:14;;;;;;;5.13;1.80;;;;;;;9.69;69.32;98192.47;6085889;29;20229;-70
2022/10/10 03:17:16;;;;;;;5.53;1.70;;;;;;;9.70;68.98;98188.88;6079966;29;20254;-69
2022/10/10 03:20:18;;;;;;;3.93;1.57;;;;;;;9.78;69.03;98189.22;6063565;29;20239;-70
2022/10/10 03:23:21;;;;;;;3.70;1.43;;;;;;;9.84;67.85;98194.06;6062075;29;20238;-69
2022/10/10 03:26:23;;;;;;;1.83;1.57;;;;;;;9.85;68.08;98188.69;6064157;29;20242;-70
2022/10/10 03:29:25;;;;;;;3.20;1.23;;;;;;;9.80;68.20;98185.50;6069086;29;20231;-69
2022/10/10 03:32:27;;;;;;;3.00;1.43;;;;;;;9.79;68.11;98186.47;6063417;29;20239;-69
2022/10/10 03:35:29;;;;;;;3.03;1.43;;;;;;;9.83;68.70;98184.47;6063216;29;20595;-69
2022/10/10 03:38:31;;;;;;;3.90;1.50;;;;;;;9.71;69.33;98191.41;6063903;29;20245;-70
2022/10/10 03:41:33;;;;;;;3.13;1.30;;;;;;;9.60;70.06;98189.50;6063445;29;20236;-69
2022/10/10 03:44:35;;;;;;;2.63;1.20;;;;;;;9.55;70.24;98194.28;6063321;29;20714;-70
2022/10/10 03:47:37;;;;;;;2.20;1.60;;;;;;;9.50;70.47;98179.69;6064406;29;20233;-70
2022/10/10 03:50:39;;;;;;;3.37;1.37;;;;;;;9.42;70.93;98180.22;6062684;29;20246;-70
2022/10/10 03:53:41;;;;;;;2.43;1.40;;;;;;;9.34;70.83;98171.16;6062534;29;20253;-69
2022/10/10 03:56:43;;;;;;;3.10;1.40;;;;;;;9.37;70.97;98171.81;6062811;29;20254;-69
2022/10/10 03:59:45;;;;;;;3.30;1.47;;;;;;;9.38;71.34;98173.50;6079288;29;20771;-70
2022/10/10 04:02:47;;;;;;;3.17;1.83;;;;;;;9.35;71.42;98167.59;6086193;29;20240;-69
2022/10/10 04:05:49;;;;;;;4.23;1.80;;;;;;;9.27;72.21;98169.91;6086107;29;20232;-69
2022/10/10 04:08:52;;;;;;;2.20;1.70;;;;;;;9.15;72.80;98168.91;6086722;29;20787;-69
2022/10/10 04:11:53;;;;;;;3.10;1.67;;;;;;;9.09;72.83;98162.25;6085987;29;20237;-68
2022/10/10 04:14:55;;;;;;;2.33;1.63;;;;;;;9.16;72.21;98163.56;6068771;29;20755;-69
2022/10/10 04:17:59;;;;;;;5.00;1.63;;;;;;;9.19;71.44;98162.47;6085521;29;20778;-70
2022/10/10 04:21:03;;;;;;;5.40;1.73;;;;;;;9.34;71.26;98156.19;6084995;29;20226;-69
2022/10/10 04:24:05;;;;;;;3.27;1.70;;;;;;;9.33;71.05;98170.31;6085725;29;20220;-70
2022/10/10 04:27:07;;;;;;;3.13;1.80;;;;;;;9.22;71.84;98171.03;6085390;29;20216;-69
2022/10/10 04:30:10;;;;;;;5.67;1.70;;;;;;;9.12;72.71;98161.22;6078447;29;20223;-69
2022/10/10 04:33:12;;;;;;;2.17;1.13;;;;;;;9.04;73.65;98164.38;6086093;29;20226;-70
2022/10/10 04:36:13;;;;;;;5.07;1.83;;;;;;;8.98;73.81;98163.94;6085437;29;20217;-69
2022/10/10 04:39:15;;;;;;;2.93;1.50;;;;;;;8.93;74.21;98158.13;6086131;29;20644;-69
2022/10/10 04:42:17;;;;;;;2.30;1.50;;;;;;;8.86;74.23;98171.69;6084329;29;20635;-69
2022/10/10 04:45:19;;;;;;;2.17;1.37;;;;;;;8.78;75.25;98167.88;6085753;29;20694;-69
2022/10/10 04:48:21;;;;;;;4.23;1.30;;;;;;;8.77;75.02;98176.72;6085918;29;20262;-68
2022/10/10 04:51:23;;;;;;;1.83;1.40;;;;;;;8.69;75.47;98166.66;6083111;29;20229;-69
2022/10/10 04:54:25;;;;;;;1.87;1.50;;;;;;;8.63;76.72;98164.44;6086148;29;20228;-69
2022/10/10 04:57:27;;;;;;;2.30;1.73;;;;;;;8.63;75.90;98167.06;6100099;29;20231;-69
2022/10/10 05:00:29;;;;;;;2.37;1.27;;;;;;;8.59;76.82;98162.94;6084578;29;20227;-69
2022/10/10 05:03:31;;;;;;;2.27;1.63;;;;;;;8.54;76.94;98165.03;6084883;29;20231;-68
2022/10/10 05:06:34;;;;;;;1.90;1.50;;;;;;;8.52;76.89;98167.75;6085180;29;20224;-69
2022/10/10 05:09:36;;;;;;;2.83;1.60;;;;;;;8.59;75.99;98162.94;6086189;29;20242;-69
2022/10/10 05:12:38;;;;;;;6.13;2.00;;;;;;;8.62;76.12;98157.50;6084022;29;20243;-69
2022/10/10 05:15:41;;;;;;;3.90;1.87;;;;;;;8.74;75.49;98164.59;6068588;29;20262;-69
2022/10/10 05:18:44;;;;;;;1.60;1.30;;;;;;;8.70;76.81;98162.25;6066099;29;20620;-68
2022/10/10 05:21:46;;;;;;;2.50;1.50;;;;;;;8.62;77.83;98154.84;6061371;29;20247;-69
2022/10/10 05:24:48;;;;;;;2.83;1.60;;;;;;;8.68;77.07;98161.53;6061423;29;20624;-69
2022/10/10 05:27:50;;;;;;;4.53;1.63;;;;;;;8.62;76.71;98159.28;6067086;29;20731;-68
2022/10/10 05:30:51;;;;;;;3.10;1.83;;;;;;;8.46;79.22;98162.91;6084081;29;20237;-68
2022/10/10 05:33:53;;;;;;;3.10;1.63;;;;;;;8.36;78.81;98171.47;6087931;29;20651;-69
2022/10/10 05:36:55;;;;;;;2.37;1.50;;;;;;;8.30;79.81;98161.28;6089029;29;20771;-69
2022/10/10 05:39:57;;;;;;;2.30;1.43;;;;;;;8.25;79.25;98166.88;6088261;29;20541;-69
2022/10/10 05:42:59;;;;;;;3.57;1.97;;;;;;;8.23;79.97;98170.53;6087913;29;20236;-70
2022/10/10 05:46:02;;;;;;;3.27;1.50;;;;;;;8.17;80.04;98168.28;6088897;29;20251;-70
2022/10/10 05:49:04;;;;;;;4.73;1.90;;;;;;;8.12;79.84;98164.16;6087404;29;20239;-70
2022/10/10 05:52:06;;;;;;;3.37;1.47;;;;;;;8.12;80.46;98158.91;6086676;29;20244;-70
2022/10/10 05:55:08;;;;;;;3.17;1.73;;;;;;;8.20;80.52;98162.81;6088493;29;20251;-69
2022/10/10 05:58:12;;;;;;;2.87;1.83;;;;;;;8.24;80.39;98162.53;6088438;29;20718;-68
2022/10/10 06:01:14;;;;;;;6.47;1.80;;;;;;;8.30;80.51;98148.16;6092408;29;20603;-69
2022/10/10 06:04:16;;;;;;;6.40;2.00;;;;;;;8.37;80.23;98155.59;6088974;29;20243;-69
2022/10/10 06:07:18;;;;;;;2.43;1.70;;;;;;;8.44;80.06;98156.06;6089615;29;20234;-69
2022/10/10 06:10:20;;;;;;;2.63;1.50;;;;;;;8.66;78.88;98161.63;6086986;29;20236;-69
2022/10/10 06:13:22;;;;;;;4.90;2.03;;;;;;;8.76;79.25;98162.72;6087324;29;20233;-69
2022/10/10 06:16:26;;;;;;;4.70;2.10;;;;;;;8.92;77.69;98153.78;6087580;29;20581;-69
2022/10/10 06:19:28;;;;;;;5.03;2.33;;;;;;;9.18;75.57;98151.09;6064005;29;20327;-69
2022/10/10 06:22:30;;;;;;;3.60;2.17;;;;;;;9.38;75.42;98151.59;6064772;29;20239;-70
2022/10/10 06:25:34;;;;;;;5.53;1.80;;;;;;;9.49;74.17;98155.16;6064039;29;20415;-69
2022/10/10 06:28:43;;;;;;;3.20;1.60;;;;;;;9.59;74.31;98153.56;6069473;29;20262;-69
2022/10/10 06:31:45;;;;;;;1.83;1.47;;;;;;;9.71;73.43;98149.25;6088825;29;20499;-69
2022/10/10 06:34:47;;;;;;;4.20;1.90;;;;;;;9.69;74.87;98151.13;6087869;29;20241;-69
2022/10/10 06:37:49;;;;;;;1.97;1.60;;;;;;;9.66;74.92;98154.00;6087104;29;20252;-69
2022/10/10 06:40:51;;;;;;;5.00;1.73;;;;;;;9.59;74.91;98153.56;6072473;29;20332;-69
2022/10/10 06:43:57;;;;;;;3.23;1.90;;;;;;;9.68;74.95;98146.00;6087508;29;20245;-70
2022/10/10 06:46:59;;;;;;;4.60;1.83;;;;;;;9.74;74.47;98156.09;6087338;29;20265;-69
2022/10/10 06:50:01;;;;;;;4.47;1.83;;;;;;;9.72;75.23;98153.56;6087971;29;20239;-69
2022/10/10 06:53:04;;;;;;;6.03;2.40;;;;;;;9.82;74.48;98164.31;6087473;29;20245;-69
2022/10/10 06:56:06;;;;;;;4.03;1.90;;;;;;;9.87;74.53;98157.78;6087688;29;20252;-69
2022/10/10 06:59:08;;;;;;;1.93;1.67;;;;;;;9.92;74.72;98168.00;6087678;29;20249;-69
2022/10/10 07:02:13;;;;;;;3.80;1.90;;;;;;;9.93;75.40;98165.25;6086416;29;20341;-69
2022/10/10 07:05:16;;;;;;;4.37;2.20;;;;;;;9.92;75.30;98160.94;6070388;29;20241;-68
2022/10/10 07:08:20;;;;;;;3.37;2.60;;;;;;;9.93;75.26;98159.16;6087172;29;20289;-70
2022/10/10 07:11:22;;;;;;;4.43;2.10;;;;;;;9.99;75.35;98164.81;6085133;29;20231;-70
2022/10/10 07:14:24;;;;;;;3.43;2.13;;;;;;;10.07;74.99;98160.81;6087515;29;20229;-69
2022/10/10 07:17:26;;;;;;;4.50;2.37;;;;;;;10.23;74.00;98164.09;6086141;29;20708;-69
2022/10/10 07:20:28;;;;;;;3.57;2.20;;;;;;;10.28;74.29;98165.44;6086116;29;20243;-69
2022/10/10 07:23:31;;;;;;;3.17;2.00;;;;;;;10.28;73.86;98161.97;6086516;29;20238;-69
2022/10/10 07:26:37;;;;;;;4.47;1.87;;;;;;;10.28;74.42;98164.63;6064598;29;20240;-68
2022/10/10 07:29:38;;;;;;;4.20;1.97;;;;;;;10.36;73.67;98157.00;6069272;29;20234;-69
2022/10/10 07:32:41;;;;;;;3.33;2.10;;;;;;;10.43;73.18;98158.22;6061173;29;20243;-70
2022/10/10 07:35:52;;;;;;;2.87;2.17;;;;;;;10.62;73.04;98165.66;6062904;29;20233;-69
2022/10/10 07:38:54;;;;;;;3.77;1.93;;;;;;;10.73;72.81;98160.44;6062291;29;20337;-69
2022/10/10 07:41:56;;;;;;;4.80;2.17;;;;;;;10.77;73.33;98164.56;6060489;29;20613;-68
2022/10/10 07:44:58;;;;;;;3.60;1.97;;;;;;;10.86;73.38;98169.16;6062716;29;20676;-70
2022/10/10 07:48:00;;;;;;;3.97;2.27;;;;;;;11.07;72.32;98153.50;6061259;29;20242;-69
2022/10/10 07:51:05;;;;;;;4.40;2.57;;;;;;;11.35;71.19;98158.41;6062650;29;20231;-69
2022/10/10 07:54:08;;;;;;;4.10;2.00;;;;;;;11.51;71.23;98162.50;6080080;29;20711;-70
2022/10/10 07:57:10;;;;;;;7.60;2.93;;;;;;;11.83;69.00;98153.81;6098826;29;20695;-70
2022/10/10 08:00:13;;;;;;;4.93;2.43;;;;;;;12.23;67.65;98158.63;6048635;29;20588;-70
2022/10/10 08:03:15;;;;;;;2.63;2.00;;;;;;;12.53;66.82;98148.22;6080621;29;20230;-69
2022/10/10 08:06:17;;;;;;;5.10;1.90;;;;;;;12.63;100.00;60274.75;6068424;29;20235;-69
2022/10/10 08:09:19;;;;;;;3.23;1.80;;;;;;;-144.22;100.00;60274.75;6085222;29;20224;-70
2022/10/10 08:12:21;;;;;;;5.53;2.20;;;;;;;-144.22;100.00;60274.75;6084813;29;20231;-70
2022/10/10 08:15:23;;;;;;;3.53;1.90;;;;;;;-144.22;100.00;60274.75;6085843;29;20588;-70
2022/10/10 08:18:28;;;;;;;3.67;2.07;;;;;;;-144.22;100.00;60274.75;6072620;29;20232;-70
2022/10/10 08:21:30;;;;;;;4.23;2.17;;;;;;;13.63;100.00;60274.75;6090006;29;20714;-70
2022/10/10 08:24:32;;;;;;;5.63;2.37;;;;;;;-144.22;100.00;60274.75;6083896;29;20228;-70
2022/10/10 08:27:34;;;;;;;5.10;2.40;;;;;;;-144.22;100.00;60274.75;6075095;29;20816;-70
2022/10/10 08:30:40;;;;;;;4.97;2.20;;;;;;;-144.22;100.00;60274.75;6079236;29;21161;-70
2022/10/10 08:33:44;;;;;;;3.97;2.37;;;;;;;-144.22;100.00;60274.75;6085665;29;20223;-71
2022/10/10 08:36:47;;;;;;;6.27;2.50;;;;;;;21.74;100.00;60274.75;6084883;29;20232;-71
2022/10/10 08:39:49;;;;;;;2.20;1.87;;;;;;;-144.22;100.00;60274.75;6068149;29;20259;-71
2022/10/10 08:42:55;;;;;;;3.73;2.37;;;;;;;21.74;100.00;60274.75;6084718;29;20326;-71
2022/10/10 08:46:03;;;;;;;3.80;2.33;;;;;;;-144.22;100.00;60274.75;6083934;29;20224;-71
2022/10/10 08:49:26;;;;;;;4.73;2.37;;;;;;;16.55;100.00;60274.75;6084030;29;20244;-71
2022/10/10 08:52:38;;;;;;;3.77;2.40;;;;;;;-144.22;100.00;60274.75;6085042;29;20236;-70
2022/10/10 08:55:45;;;;;;;2.73;2.30;;;;;;;-144.22;100.00;60274.75;6084641;29;20778;-70
2022/10/10 08:58:56;;;;;;;3.70;1.93;;;;;;;16.25;100.00;60274.75;6085550;29;20329;-70
2022/10/10 09:02:18;;;;;;;4.57;2.50;;;;;;;16.49;100.00;60274.75;6076382;29;20320;-71
2022/10/10 09:05:41;;;;;;;5.00;2.27;;;;;;;-144.22;100.00;60274.75;6080245;29;20227;-71
2022/10/10 09:09:17;;;;;;;5.63;2.20;;;;;;;-144.22;100.00;60274.75;6088961;29;20232;-70
2022/10/10 09:12:46;;;;;;;3.47;2.50;;;;;;;-144.22;100.00;60274.75;6073039;29;20246;-71
2022/10/10 09:15:59;;;;;;;3.60;2.00;;;;;;;-144.22;100.00;60274.75;6088377;29;20684;-70
2022/10/10 09:19:28;;;;;;;7.47;2.47;;;;;;;17.68;100.00;60274.75;6093225;29;20250;-71
2022/10/10 09:22:34;;;;;;;6.70;2.70;;;;;;;-144.22;100.00;60274.75;6087800;29;20247;-70
2022/10/10 09:25:47;;;;;;;4.10;2.73;;;;;;;-144.22;100.00;60274.75;6089728;29;20255;-71
2022/10/10 09:29:02;;;;;;;6.23;2.70;;;;;;;-144.22;100.00;60274.75;6071486;29;20223;-70
2022/10/10 09:32:09;;;;;;;3.47;2.30;;;;;;;-144.22;100.00;60274.75;6087296;29;20730;-71
2022/10/10 09:35:17;;;;;;;4.47;2.57;;;;;;;-144.22;100.00;60274.75;6088112;29;20223;-70
2022/10/10 09:38:25;;;;;;;3.93;2.37;;;;;;;-144.22;100.00;60274.75;6088587;29;20239;-70
2022/10/10 09:41:46;;;;;;;4.20;2.10;;;;;;;-144.22;100.00;60274.75;6088009;29;20228;-71
2022/10/10 09:44:48;;;;;;;4.93;2.43;;;;;;;-144.22;100.00;60274.75;6071158;29;20236;-70
2022/10/10 09:47:53;;;;;;;4.23;2.40;;;;;;;-144.22;100.00;60274.75;6088235;29;20239;-70
2022/10/10 09:50:56;;;;;;;3.33;2.60;;;;;;;-144.22;100.00;60274.75;6088844;29;20244;-71
2022/10/10 09:53:58;;;;;;;3.37;2.40;;;;;;;17.91;100.00;60274.75;6071231;29;20607;-71
2022/10/10 09:57:02;;;;;;;3.50;2.30;;;;;;;-144.22;100.00;60274.75;6071328;29;20446;-71
2022/10/10 10:00:26;;;;;;;5.87;2.60;;;;;;;17.74;100.00;60274.75;6087567;29;20244;-71
2022/10/10 10:03:28;;;;;;;3.63;2.67;;;;;;;17.66;100.00;60274.75;6071990;29;20272;-71
2022/10/10 10:06:30;;;;;;;5.40;2.93;;;;;;;-144.22;100.00;60274.75;6088776;29;20231;-70
2022/10/10 10:09:32;;;;;;;2.43;2.20;;;;;;;-144.22;100.00;60274.75;6088520;29;20379;-70
2022/10/10 10:12:43;;;;;;;4.30;2.30;;;;;;;19.15;100.00;60274.75;6054199;29;20232;-70
2022/10/10 10:15:51;;;;;;;4.70;2.43;;;;;;;-144.22;100.00;60274.75;6087229;29;20240;-71
2022/10/10 10:18:53;;;;;;;4.20;2.27;;;;;;;-144.22;100.00;60274.75;6087111;29;20711;-71
2022/10/10 10:21:55;;;;;;;3.50;2.90;;;;;;;17.27;100.00;60274.75;6086869;29;20235;-70
2022/10/10 10:24:58;;;;;;;3.57;2.40;;;;;;;-144.22;100.00;60274.75;6087967;29;20339;-70
2022/10/10 10:28:19;;;;;;;3.83;2.73;;;;;;;-144.22;100.00;60274.75;6069939;29;20354;-71
2022/10/10 10:31:39;;;;;;;5.33;2.80;;;;;;;-144.22;100.00;60274.75;6074606;29;20291;-70
2022/10/10 10:34:59;;;;;;;4.43;2.57;;;;;;;-144.22;100.00;60274.75;6091768;29;20236;-70
2022/10/10 10:38:24;;;;;;;3.40;2.73;;;;;;;-144.22;100.00;60274.75;6086871;29;20607;-70
2022/10/10 10:41:34;;;;;;;5.67;2.93;;;;;;;17.48;100.00;60274.75;6086827;29;20243;-70
2022/10/10 10:44:45;;;;;;;5.23;2.60;;;;;;;-144.22;100.00;60274.75;6086115;29;20267;-71
2022/10/10 10:48:18;;;;;;;5.03;2.80;;;;;;;-144.22;100.00;60274.75;6087104;29;20228;-71
2022/10/10 10:51:35;;;;;;;3.93;3.00;;;;;;;-144.22;100.00;60274.75;6086081;29;20243;-71
2022/10/10 10:54:52;;;;;;;12.90;3.37;;;;;;;-144.22;100.00;60274.75;6087250;29;20455;-70
2022/10/10 10:57:57;;;;;;;4.73;2.90;;;;;;;-144.22;100.00;60274.75;6086396;29;20216;-70
2022/10/10 11:01:34;;;;;;;3.87;3.00;;;;;;;-144.22;100.00;60274.75;6082965;29;20232;-70
2022/10/10 11:05:19;;;;;;;3.27;2.97;;;;;;;17.45;100.00;60274.75;6086659;29;20802;-70
2022/10/10 11:09:03;;;;;;;4.43;2.80;;;;;;;-144.22;100.00;60274.75;6087066;29;20580;-70
2022/10/10 11:12:18;;;;;;;4.73;3.30;;;;;;;17.82;100.00;60274.75;6086009;29;20238;-70
2022/10/10 11:15:26;;;;;;;4.80;3.57;;;;;;;17.71;100.00;60274.75;6086018;29;20216;-71
2022/10/10 11:18:48;;;;;;;4.90;2.97;;;;;;;-144.22;100.00;60274.75;6071499;29;20242;-70
2022/10/10 11:22:05;;;;;;;4.43;3.37;;;;;;;-144.22;100.00;60274.75;6085317;29;20240;-70
2022/10/10 11:25:18;;;;;;;4.20;3.10;;;;;;;18.11;100.00;60274.75;6069377;29;20778;-70
2022/10/10 11:28:43;;;;;;;6.13;3.43;;;;;;;-144.22;100.00;60274.75;6085546;29;20235;-70
2022/10/10 11:31:52;;;;;;;6.00;3.53;;;;;;;-144.22;100.00;60274.75;6063247;29;20265;-70
2022/10/10 11:35:13;;;;;;;4.03;3.10;;;;;;;-144.22;100.00;60274.75;6086232;29;20235;-70
2022/10/10 11:38:34;;;;;;;5.00;3.60;;;;;;;-144.22;100.00;60274.75;6069028;29;20323;-70
2022/10/10 11:42:01;;;;;;;5.10;3.57;;;;;;;-144.22;100.00;60274.75;6086289;29;20236;-71
2022/10/10 11:45:14;;;;;;;3.90;3.00;;;;;;;18.15;100.00;60274.75;6068431;29;20236;-70
2022/10/10 11:48:44;;;;;;;3.53;3.00;;;;;;;-144.22;100.00;60274.75;6086084;29;20711;-70
2022/10/10 11:51:58;;;;;;;4.67;2.93;;;;;;;-144.22;100.00;60274.75;6086035;29;20246;-70
2022/10/10 11:55:49;;;;;;;5.67;3.30;;;;;;;19.42;100.00;60274.75;6085633;29;20250;-70
2022/10/10 11:59:00;;;;;;;6.90;3.50;;;;;;;-144.22;100.00;60274.75;6085063;29;20243;-71
2022/10/10 12:02:31;;;;;;;4.47;3.33;;;;;;;-144.22;100.00;60274.75;6073842;29;20234;-71
2022/10/10 12:05:37;;;;;;;5.27;3.70;;;;;;;19.32;100.00;60274.75;6082516;29;20244;-71
2022/10/10 12:08:46;;;;;;;5.60;3.20;;;;;;;-144.22;100.00;60274.75;6086104;29;20231;-71
2022/10/10 12:11:52;;;;;;;6.13;3.40;;;;;;;-144.22;100.00;60274.75;6086335;29;20236;-71
2022/10/10 12:14:59;;;;;;;4.17;3.27;;;;;;;-144.22;100.00;60274.75;6067469;29;20240;-71
2022/10/10 12:18:02;;;;;;;5.73;3.60;;;;;;;20.28;100.00;60274.75;6082938;29;20228;-71
2022/10/10 12:21:13;;;;;;;4.07;3.40;;;;;;;-144.22;100.00;60274.75;6085074;29;20695;-71
2022/10/10 12:24:15;;;;;;;5.03;3.53;;;;;;;20.15;100.00;60274.75;6084925;29;20228;-71
2022/10/10 12:27:42;;;;;;;8.33;4.60;;;;;;;-144.22;100.00;60274.75;6085768;29;20600;-71
2022/10/10 12:30:55;;;;;;;9.67;4.33;;;;;;;-144.22;100.00;60274.75;6085242;29;20228;-71
2022/10/10 12:34:09;;;;;;;7.10;4.60;;;;;;;-144.22;100.00;60274.75;6085916;29;20319;-71
2022/10/10 12:37:21;;;;;;;6.50;4.67;;;;;;;-144.22;100.00;60274.75;6084215;29;20239;-70
2022/10/10 12:40:23;;;;;;;6.47;4.60;;;;;;;19.93;100.00;60274.75;6085461;29;20240;-70
2022/10/10 12:43:36;;;;;;;6.40;4.27;;;;;;;-144.22;100.00;60274.75;6084830;29;20258;-70
2022/10/10 12:46:38;;;;;;;5.83;4.57;;;;;;;20.18;100.00;60274.75;6085008;29;20231;-70
2022/10/10 12:49:58;;;;;;;7.20;4.73;;;;;;;-144.22;100.00;60274.75;6084311;29;20246;-71
2022/10/10 12:53:03;;;;;;;6.97;4.93;;;;;;;-144.22;100.00;60274.75;6069078;29;20611;-71
2022/10/10 12:56:06;;;;;;;8.57;5.30;;;;;;;-144.22;100.00;60274.75;6085079;29;20264;-71
2022/10/10 12:59:22;;;;;;;5.90;5.10;;;;;;;-144.22;100.00;60274.75;6084386;29;20242;-70
2022/10/10 13:02:26;;;;;;;6.73;5.23;;;;;;;-144.22;100.00;60274.75;6077589;29;20224;-70
2022/10/10 13:05:33;;;;;;;4.53;4.13;;;;;;;-144.22;100.00;60274.75;6066827;29;20817;-71
2022/10/10 13:08:39;;;;;;;8.77;5.07;;;;;;;-144.22;100.00;60274.75;6084758;29;20232;-70
2022/10/10 13:11:56;;;;;;;5.93;5.33;;;;;;;-144.22;100.00;60274.75;6068025;29;20246;-71
2022/10/10 13:14:58;;;;;;;6.73;5.00;;;;;;;-144.22;100.00;60274.75;6084704;29;20747;-70
2022/10/10 13:18:01;;;;;;;6.17;5.00;;;;;;;-144.22;100.00;60274.75;6084421;29;20242;-71
2022/10/10 13:21:07;;;;;;;7.30;5.10;;;;;;;-144.22;100.00;60274.75;6082607;29;20720;-70
2022/10/10 13:24:16;;;;;;;7.47;5.40;;;;;;;-144.22;100.00;60274.75;6067357;29;20220;-70
2022/10/10 13:27:23;;;;;;;5.80;4.83;;;;;;;24.34;100.00;60274.75;6084981;29;20339;-70
2022/10/10 13:30:25;;;;;;;7.67;5.20;;;;;;;-144.22;100.00;60274.75;6064776;29;20259;-70
2022/10/10 13:33:32;;;;;;;6.70;5.30;;;;;;;-144.22;100.00;60274.75;6085894;29;20227;-70
2022/10/10 13:36:36;;;;;;;8.80;5.30;;;;;;;-144.22;100.00;60274.75;6083780;29;20235;-71
2022/10/10 13:39:38;;;;;;;9.70;5.40;;;;;;;-144.22;100.00;60274.75;6083620;29;20232;-71
2022/10/10 13:42:40;;;;;;;7.50;5.27;;;;;;;-144.22;100.00;60274.75;6067058;29;20238;-70
2022/10/10 13:45:49;;;;;;;8.40;4.67;;;;;;;-144.22;100.00;60274.75;6085645;29;20599;-70
2022/10/10 13:48:51;;;;;;;8.20;4.80;;;;;;;-144.22;100.00;60274.75;6088420;29;20378;-71
2022/10/10 13:52:03;;;;;;;5.37;4.50;;;;;;;-144.22;100.00;60274.75;6089643;29;20236;-70
2022/10/10 13:55:26;;;;;;;5.80;4.90;;;;;;;-144.22;100.00;60274.75;6088311;29;20254;-70
2022/10/10 13:58:39;;;;;;;5.00;4.50;;;;;;;-144.22;100.00;60274.75;6087385;29;20327;-70
2022/10/10 14:01:45;;;;;;;7.17;5.13;;;;;;;-144.22;100.00;60274.75;6078481;29;20613;-71
2022/10/10 14:04:53;;;;;;;5.37;4.87;;;;;;;-144.22;100.00;60274.75;6075990;29;20242;-71
2022/10/10 14:07:56;;;;;;;5.13;4.53;;;;;;;-144.22;100.00;60274.75;6070330;29;20231;-71
2022/10/10 14:11:07;;;;;;;5.40;4.83;;;;;;;-144.22;100.00;60274.75;6088646;29;20244;-71
2022/10/10 14:14:26;;;;;;;7.17;5.20;;;;;;;-144.22;100.00;60274.75;6087417;29;20612;-70
2022/10/10 14:17:28;;;;;;;7.87;5.53;;;;;;;-144.22;100.00;60274.75;6071148;29;20224;-71
2022/10/10 14:20:30;;;;;;;7.30;5.10;;;;;;;-144.22;100.00;60274.75;6086888;29;20754;-70
2022/10/10 14:23:32;;;;;;;7.27;5.17;;;;;;;-144.22;100.00;60274.75;6087836;29;20223;-71
2022/10/10 14:26:35;;;;;;;9.47;5.30;;;;;;;-144.22;100.00;60274.75;6087332;29;20704;-70
2022/10/10 14:29:37;;;;;;;7.70;4.87;;;;;;;-144.22;100.00;60274.75;6061987;29;20247;-71
2022/10/10 14:32:39;;;;;;;6.33;5.17;;;;;;;-144.22;100.00;60274.75;6077793;29;20244;-71
2022/10/10 14:35:42;;;;;;;7.77;6.07;;;;;;;-144.22;100.00;60274.75;6086651;29;20234;-71
2022/10/10 14:38:44;;;;;;;7.70;5.20;;;;;;;-144.22;100.00;60274.75;6070050;29;20236;-71